ORER/EBL METAR and TAF weather

Enter ICAO airport designator
Station Type Date Time Source
ORER METAR 2019/12/12 09:00 UTC NOAA

ORER 120900Z 33004KT 8000 NSC 11/07 Q1019 NOSIG


Station Type Date Time Source
ORER Decoded METAR 2019/12/12 09:00 UTC NOAA

Station name not available
Dec 12, 2019 - 04:00 AM EST / 2019.12.12 0900 UTC
Wind: from the NNW (330 degrees) at 5 MPH (4 KT):0
Visibility: 4 mile(s):0
Temperature: 51 F (11 C)
Dew Point: 44 F (7 C)
Relative Humidity: 76%
Pressure (altimeter): 30.09 in. Hg (1019 hPa)
ob: ORER 120900Z 33004KT 8000 NSC 11/07 Q1019 NOSIG
cycle: 9

Station Type Date Time Source
ORER TAF 2019/12/12 06:05 UTC NOAA

TAF ORER 120400Z 1206/1306 30006KT 6000 BR NSC

Example: see airport list